Time;durP1;ratioP1;P1;durP2;ratioP2;P2;SDS_P1;SDS_P2;PMS_P1;PMS_P2;Temp;Humidity;BMP_temperature;BMP_pressure;BME280_temperature;BME280_humidity;BME280_pressure;Samples;Min_cycle;Max_cycle;Signal;HPM_P1;HPM_P2
2023/04/29 00:00:41;;;;;;;;;3.33;2.33;;;;;17.50;56.75;101241.53;5068394;27;45506;-70
2023/04/29 00:03:07;;;;;;;;;3.00;3.00;;;;;17.45;57.08;101235.44;5057718;27;45243;-70
2023/04/29 00:05:32;;;;;;;;;3.33;2.33;;;;;17.41;57.23;101231.09;5054975;27;45443;-72
2023/04/29 00:07:58;;;;;;;;;3.00;2.00;;;;;17.44;57.10;101246.94;5058350;27;46062;-70
2023/04/29 00:10:23;;;;;;;;;3.33;2.00;;;;;17.33;57.38;101224.19;5072138;27;45413;-70
2023/04/29 00:12:50;;;;;;;;;3.00;3.00;;;;;17.36;57.53;101233.84;5068619;27;45459;-70
2023/04/29 00:15:17;;;;;;;;;2.67;2.67;;;;;17.35;57.45;101240.06;5079218;27;45609;-70
2023/04/29 00:17:53;;;;;;;;;3.67;3.00;;;;;17.33;57.46;101240.06;5069519;28;45553;-72
2023/04/29 00:20:21;;;;;;;;;3.00;3.00;;;;;17.32;57.38;101238.34;5076692;28;45546;-72
2023/04/29 00:22:59;;;;;;;;;3.00;3.00;;;;;17.29;57.35;101234.84;5096474;27;45418;-72
2023/04/29 00:25:25;;;;;;;;;5.00;3.33;;;;;17.11;57.46;101207.81;5072533;28;45505;-71
2023/04/29 00:27:58;;;;;;;;;4.67;4.33;;;;;17.18;57.21;101224.47;5064367;28;45500;-70
2023/04/29 00:30:48;;;;;;;;;4.00;3.00;;;;;17.21;57.47;101226.19;5074917;28;45575;-71
2023/04/29 00:33:27;;;;;;;;;3.00;3.00;;;;;17.06;57.67;101203.47;5095382;27;45531;-70
2023/04/29 00:35:57;;;;;;;;;3.33;2.67;;;;;17.01;57.60;101192.09;5081028;28;45449;-72
2023/04/29 00:38:23;;;;;;;;;4.00;4.00;;;;;17.18;58.12;101221.81;5074514;27;45445;-71
2023/04/29 00:40:48;;;;;;;;;3.33;3.00;;;;;17.12;57.85;101216.63;5074657;28;45447;-70
2023/04/29 00:43:14;;;;;;;;;6.00;4.00;;;;;17.02;58.48;101199.16;5067411;28;45382;-70
2023/04/29 00:45:39;;;;;;;;;3.00;3.00;;;;;17.10;57.80;101215.78;5065878;28;45433;-70
2023/04/29 00:48:05;;;;;;;;;5.00;3.00;;;;;17.11;57.93;101218.41;5067051;28;45537;-72
2023/04/29 00:50:31;;;;;;;;;2.67;2.67;;;;;17.05;57.96;101209.69;5057680;27;46487;-70
2023/04/29 00:52:57;;;;;;;;;4.67;4.00;;;;;17.09;57.60;101219.34;5054548;27;46155;-71
2023/04/29 00:55:23;;;;;;;;;4.33;4.00;;;;;17.06;57.99;101225.56;5054462;28;45632;-70
2023/04/29 00:57:51;;;;;;;;;6.00;5.00;;;;;17.02;57.76;101213.25;5054173;27;45477;-70
2023/04/29 01:00:17;;;;;;;;;5.00;3.67;;;;;17.01;57.93;101215.94;5054501;28;46586;-70
2023/04/29 01:02:44;;;;;;;;;4.00;4.00;;;;;16.98;58.11;101210.69;5054296;27;45441;-70
2023/04/29 01:05:14;;;;;;;;;3.33;3.33;;;;;16.96;58.01;101205.41;5064881;27;45701;-71
2023/04/29 01:08:01;;;;;;;;;4.00;4.00;;;;;16.94;58.36;101218.69;5062293;27;45410;-70
2023/04/29 01:10:30;;;;;;;;;6.00;4.67;;;;;16.95;58.18;101222.22;5065863;27;46847;-71
2023/04/29 01:13:28;;;;;;;;;3.00;3.00;;;;;16.92;58.33;101222.28;5058860;27;45525;-71
2023/04/29 01:16:02;;;;;;;;;4.00;4.00;;;;;16.90;58.27;101224.06;5058727;27;45363;-70
2023/04/29 01:19:00;;;;;;;;;5.00;5.00;;;;;16.88;58.29;101223.22;5056735;27;45330;-71
2023/04/29 01:21:26;;;;;;;;;5.33;4.33;;;;;16.83;58.56;101214.47;5067704;28;45468;-71
2023/04/29 01:23:55;;;;;;;;;6.00;5.00;;;;;16.80;57.97;101202.19;5077967;27;45763;-71
2023/04/29 01:26:25;;;;;;;;;4.33;3.00;;;;;16.84;58.39;101211.78;5107924;27;46466;-70
2023/04/29 01:29:18;;;;;;;;;3.33;3.33;;;;;16.85;58.56;101225.91;5075364;27;45452;-71
2023/04/29 01:32:28;;;;;;;;;3.67;3.67;;;;;16.81;58.42;101229.50;5066913;27;45445;-70
2023/04/29 01:34:58;;;;;;;;;5.00;4.00;;;;;16.83;58.38;101230.34;5055986;28;45558;-71
2023/04/29 01:37:40;;;;;;;;;3.67;3.67;;;;;16.82;58.65;101233.88;5072419;28;45403;-70
2023/04/29 01:40:32;;;;;;;;;8.33;5.00;;;;;16.79;58.91;101228.63;5074823;27;45489;-70
2023/04/29 01:43:03;;;;;;;;;4.00;4.00;;;;;16.63;58.95;101205.03;5090057;27;48115;-71
2023/04/29 01:45:31;;;;;;;;;4.67;4.00;;;;;16.67;59.36;101212.03;5073228;27;45460;-71
2023/04/29 01:47:58;;;;;;;;;4.00;4.00;;;;;16.59;59.18;101208.63;5074774;28;45510;-71
2023/04/29 01:50:24;;;;;;;;;3.33;3.33;;;;;16.58;59.04;101206.00;5076541;28;45646;-71
2023/04/29 01:52:49;;;;;;;;;8.00;5.67;;;;;16.60;58.95;101218.31;5077357;28;45544;-71
2023/04/29 01:55:15;;;;;;;;;6.33;5.33;;;;;16.63;58.93;101209.44;5078620;27;45426;-71
2023/04/29 01:57:41;;;;;;;;;4.00;4.00;;;;;16.53;59.10;101198.16;5077658;28;45536;-71
2023/04/29 02:00:07;;;;;;;;;4.00;4.00;;;;;16.58;59.45;101206.00;5073677;28;45454;-71
2023/04/29 02:02:33;;;;;;;;;5.00;5.00;;;;;16.62;59.12;101215.66;5073731;28;45464;-70
2023/04/29 02:05:12;;;;;;;;;5.00;3.67;;;;;16.58;59.04;101209.53;5074022;28;45357;-71
2023/04/29 02:07:40;;;;;;;;;5.33;5.33;;;;;16.59;59.31;101210.41;5090341;27;45492;-70
2023/04/29 02:10:06;;;;;;;;;5.00;4.00;;;;;16.52;59.24;101209.63;5077744;27;45355;-71
2023/04/29 02:12:32;;;;;;;;;5.00;5.00;;;;;16.53;58.98;101206.94;5078053;28;46080;-71
2023/04/29 02:14:57;;;;;;;;;5.00;5.00;;;;;16.53;59.20;101204.28;5075559;27;45520;-71
2023/04/29 02:17:23;;;;;;;;;6.00;6.00;;;;;16.42;59.08;101195.69;5064664;28;45587;-71
2023/04/29 02:19:49;;;;;;;;;7.00;5.33;;;;;16.47;59.26;101199.13;5071241;28;45418;-70
2023/04/29 02:22:14;;;;;;;;;3.33;3.33;;;;;16.50;59.45;101214.94;5077807;28;45490;-70
2023/04/29 02:24:40;;;;;;;;;4.00;4.00;;;;;16.49;59.47;101217.59;5072350;28;45419;-70
2023/04/29 02:27:05;;;;;;;;;6.33;5.00;;;;;16.51;59.27;101229.00;5089963;27;45600;-70
2023/04/29 02:29:38;;;;;;;;;4.00;4.00;;;;;16.43;59.33;101218.56;5076070;28;45381;-71
2023/04/29 02:32:14;;;;;;;;;4.00;4.00;;;;;16.48;59.21;101227.28;5089810;27;46890;-71
2023/04/29 02:34:41;;;;;;;;;5.00;5.00;;;;;16.38;59.55;101217.75;5073282;27;45415;-69
2023/04/29 02:37:06;;;;;;;;;4.00;4.00;;;;;16.44;59.22;101230.00;5061069;27;45497;-72
2023/04/29 02:39:32;;;;;;;;;6.33;5.00;;;;;16.39;59.14;101214.19;5063618;28;45414;-73
2023/04/29 02:41:57;;;;;;;;;3.67;3.67;;;;;16.37;59.02;101207.19;5077514;28;46171;-70
2023/04/29 02:44:23;;;;;;;;;3.00;3.00;;;;;16.40;59.32;101217.75;5076805;28;45357;-70
2023/04/29 02:46:48;;;;;;;;;5.00;3.67;;;;;16.32;59.42;101209.91;5078179;27;45378;-71
2023/04/29 02:49:14;;;;;;;;;3.33;3.33;;;;;16.39;59.31;101226.56;5074833;28;45383;-69
2023/04/29 02:51:40;;;;;;;;;3.67;3.67;;;;;16.41;59.74;101230.06;5073363;27;46115;-70
2023/04/29 02:54:06;;;;;;;;;4.00;4.00;;;;;16.39;59.80;101223.91;5074572;27;45461;-71
2023/04/29 02:56:31;;;;;;;;;5.00;4.00;;;;;16.31;59.43;101216.09;5078209;28;45325;-71
2023/04/29 02:58:57;;;;;;;;;5.33;5.33;;;;;16.36;59.69;101226.59;5078159;28;45588;-71
2023/04/29 03:01:23;;;;;;;;;4.33;4.33;;;;;16.32;59.76;101225.75;5076466;28;47545;-70
2023/04/29 03:03:48;;;;;;;;;7.00;5.33;;;;;16.25;59.49;101210.88;5076898;28;45306;-70
2023/04/29 03:06:14;;;;;;;;;6.00;6.00;;;;;16.31;59.46;101226.66;5073521;28;45437;-69
2023/04/29 03:08:40;;;;;;;;;5.00;4.33;;;;;16.24;59.77;101217.94;5073676;28;46121;-70
2023/04/29 03:11:06;;;;;;;;;3.67;3.67;;;;;16.26;59.52;101223.22;5088863;27;47339;-70
2023/04/29 03:13:31;;;;;;;;;5.00;4.00;;;;;16.22;59.86;101226.78;5077057;28;45403;-70
2023/04/29 03:15:59;;;;;;;;;3.33;3.00;;;;;16.07;59.99;101197.03;5077637;28;45445;-70
2023/04/29 03:18:25;;;;;;;;;6.67;3.00;;;;;16.22;59.85;101235.59;5063359;28;45528;-70
2023/04/29 03:20:50;;;;;;;;;5.67;4.33;;;;;16.23;59.73;101237.34;5070029;27;46058;-69
2023/04/29 03:23:16;;;;;;;;;4.00;4.00;;;;;16.17;59.52;101228.63;5068462;27;45470;-69
2023/04/29 03:25:41;;;;;;;;;3.67;3.33;;;;;16.16;59.66;101237.44;5092517;27;45690;-69
2023/04/29 03:28:07;;;;;;;;;7.00;4.00;;;;;16.23;59.89;101254.97;5092903;27;45484;-70
2023/04/29 03:30:33;;;;;;;;;4.33;3.00;;;;;16.13;59.62;101241.00;5076716;27;46096;-70
2023/04/29 03:32:58;;;;;;;;;4.67;4.00;;;;;16.21;59.37;101256.78;5077419;27;45279;-71
2023/04/29 03:35:24;;;;;;;;;5.00;5.00;;;;;16.10;59.54;101247.19;5078907;27;45509;-70
2023/04/29 03:37:49;;;;;;;;;5.67;3.00;;;;;16.20;59.63;101255.00;5081418;27;45496;-70
2023/04/29 03:40:15;;;;;;;;;4.00;3.00;;;;;16.20;59.64;101263.81;5080628;27;45644;-70
2023/04/29 03:42:41;;;;;;;;;5.00;5.00;;;;;16.15;59.55;101257.72;5076675;27;45369;-70
2023/04/29 03:45:07;;;;;;;;;5.00;4.67;;;;;16.17;59.56;101261.22;5068635;27;46499;-71
2023/04/29 03:47:33;;;;;;;;;5.67;4.00;;;;;16.13;59.99;101251.56;5056964;27;45581;-71
2023/04/29 03:49:58;;;;;;;;;5.33;5.33;;;;;16.16;59.72;101254.19;5056271;27;45389;-71
2023/04/29 03:52:24;;;;;;;;;6.00;4.33;;;;;16.16;59.86;101262.13;5070396;27;45742;-70
2023/04/29 03:54:50;;;;;;;;;13.67;10.67;;;;;16.16;59.71;101259.47;5067489;27;45353;-71
2023/04/29 03:57:15;;;;;;;;;12.33;9.33;;;;;16.07;59.87;101257.81;5065003;28;45789;-71
2023/04/29 03:59:41;;;;;;;;;9.67;9.33;;;;;16.08;59.87;101259.53;5060756;27;46329;-71
2023/04/29 04:02:07;;;;;;;;;10.00;10.00;;;;;16.08;60.20;101259.53;5067801;27;45336;-72
2023/04/29 04:04:33;;;;;;;;;13.33;10.33;;;;;16.10;59.82;101270.09;5055653;27;45449;-71
2023/04/29 04:06:59;;;;;;;;;10.33;9.67;;;;;16.02;60.07;101267.56;5056013;27;45571;-70
2023/04/29 04:09:25;;;;;;;;;13.33;10.67;;;;;15.94;60.24;101253.56;5061139;27;45483;-69
2023/04/29 04:11:50;;;;;;;;;14.00;12.00;;;;;16.03;60.45;101274.59;5055041;27;45426;-70
2023/04/29 04:14:16;;;;;;;;;15.33;15.33;;;;;15.98;60.22;101271.13;5056530;27;45747;-70
2023/04/29 04:16:41;;;;;;;;;16.33;15.00;;;;;15.86;60.36;101253.66;5062533;27;45562;-71
2023/04/29 04:19:10;;;;;;;;;22.00;18.33;;;;;15.86;60.31;101258.94;5064548;28;46491;-71
2023/04/29 04:21:36;;;;;;;;;16.33;14.67;;;;;15.90;60.58;101286.22;5064079;27;45784;-71
2023/04/29 04:24:02;;;;;;;;;21.00;19.33;;;;;15.80;60.33;101276.63;5056153;27;45829;-70
2023/04/29 04:26:27;;;;;;;;;18.33;15.33;;;;;15.85;60.52;101288.00;5055137;27;45594;-71
2023/04/29 04:28:53;;;;;;;;;14.67;14.67;;;;;15.83;61.13;101297.72;5055071;27;45331;-71
2023/04/29 04:31:19;;;;;;;;;18.00;13.67;;;;;15.81;60.52;101291.59;5055649;28;45426;-70
2023/04/29 04:33:44;;;;;;;;;15.67;11.67;;;;;15.81;60.63;101291.59;5055334;27;45399;-70
2023/04/29 04:36:10;;;;;;;;;12.67;12.67;;;;;15.84;60.89;101292.41;5055780;27;45394;-70
2023/04/29 04:38:35;;;;;;;;;20.67;14.33;;;;;15.84;60.94;101296.81;5063235;27;46667;-70
2023/04/29 04:41:01;;;;;;;;;14.33;13.67;;;;;15.82;60.79;101298.59;5054964;27;45466;-71
2023/04/29 04:43:27;;;;;;;;;19.67;16.67;;;;;15.83;61.00;101305.66;5074666;27;45382;-70
2023/04/29 04:45:52;;;;;;;;;20.33;18.67;;;;;15.68;60.96;101280.22;5069388;27;45613;-71
2023/04/29 04:48:18;;;;;;;;;23.75;22.75;;;;;15.75;60.87;101291.63;5067136;27;46450;-70
2023/04/29 04:50:43;;;;;;;;;15.67;14.33;;;;;15.70;61.00;101299.59;5066579;27;45335;-72
2023/04/29 04:53:09;;;;;;;;;16.00;13.00;;;;;15.73;61.40;101307.53;5068564;27;45495;-69
2023/04/29 04:55:35;;;;;;;;;11.00;11.00;;;;;15.67;61.05;101307.53;5064056;27;45462;-70
2023/04/29 04:58:01;;;;;;;;;12.67;11.67;;;;;15.70;60.99;101310.16;5058759;27;46113;-71
2023/04/29 05:00:26;;;;;;;;;11.67;10.33;;;;;15.70;61.17;101318.09;5055833;27;45397;-70
2023/04/29 05:02:52;;;;;;;;;13.67;11.00;;;;;15.68;61.21;101319.84;5054158;28;45540;-71
2023/04/29 05:05:17;;;;;;;;;13.00;11.67;;;;;15.67;60.27;101318.97;5054932;27;45401;-71
2023/04/29 05:07:43;;;;;;;;;10.33;9.00;;;;;15.71;61.11;101327.78;5086611;27;47858;-70
2023/04/29 05:10:09;;;;;;;;;7.33;7.33;;;;;15.73;61.19;101330.38;5053440;27;45635;-71
2023/04/29 05:12:35;;;;;;;;;10.00;10.00;;;;;15.73;61.37;101336.56;5054449;28;45501;-71
2023/04/29 05:15:01;;;;;;;;;11.67;10.67;;;;;15.72;60.98;101340.09;5055088;27;45496;-70
2023/04/29 05:17:27;;;;;;;;;12.33;11.33;;;;;15.65;60.81;101331.31;5062779;27;46811;-71
2023/04/29 05:19:52;;;;;;;;;11.00;10.33;;;;;15.73;61.16;101341.84;5077893;27;45327;-70
2023/04/29 05:22:18;;;;;;;;;15.67;10.33;;;;;15.69;60.46;101330.41;5067327;27;45398;-72
2023/04/29 05:24:43;;;;;;;;;14.33;11.33;;;;;15.77;61.08;101350.59;5039622;28;45514;-71
2023/04/29 05:27:09;;;;;;;;;15.00;13.67;;;;;15.73;61.14;101349.78;5053582;28;46016;-71
2023/04/29 05:29:35;;;;;;;;;12.33;10.00;;;;;15.76;61.00;101362.06;5053970;28;45445;-72
2023/04/29 05:32:01;;;;;;;;;12.00;11.00;;;;;15.78;60.91;101361.16;5053917;28;45457;-71
2023/04/29 05:34:26;;;;;;;;;13.33;12.67;;;;;15.78;60.73;101363.81;5032667;28;45513;-70
2023/04/29 05:36:52;;;;;;;;;13.00;10.67;;;;;15.78;61.04;101368.19;5048765;28;45708;-72
2023/04/29 05:39:18;;;;;;;;;13.00;12.33;;;;;15.77;61.23;101382.31;5053861;28;45400;-71
2023/04/29 05:41:43;;;;;;;;;16.33;14.00;;;;;15.77;61.16;101384.94;5055836;28;45707;-71
2023/04/29 05:44:09;;;;;;;;;12.33;12.00;;;;;15.77;60.92;101384.94;5036741;28;45807;-71
2023/04/29 05:46:35;;;;;;;;;14.33;13.67;;;;;15.68;61.13;101375.28;5035877;28;46735;-71
2023/04/29 05:49:01;;;;;;;;;14.00;12.67;;;;;15.71;61.31;101380.59;5040456;28;45352;-72
2023/04/29 05:51:27;;;;;;;;;17.00;13.33;;;;;15.73;60.98;101380.56;5057473;28;45478;-70
2023/04/29 05:53:53;;;;;;;;;14.33;13.00;;;;;15.68;61.03;101385.84;5044347;28;45485;-72
2023/04/29 05:56:19;;;;;;;;;15.00;10.67;;;;;15.66;61.48;101382.34;5040361;28;45427;-70
2023/04/29 05:58:44;;;;;;;;;15.33;11.00;;;;;15.63;61.37;101385.03;5054236;28;45386;-69
2023/04/29 06:01:10;;;;;;;;;12.33;10.67;;;;;15.65;61.39;101381.47;5054102;28;45604;-70
2023/04/29 06:03:36;;;;;;;;;11.33;10.67;;;;;15.72;61.43;101389.41;5044821;28;45585;-72
2023/04/29 06:06:01;;;;;;;;;14.67;14.67;;;;;15.58;62.03;101378.91;5056461;28;45950;-71
2023/04/29 06:08:28;;;;;;;;;16.67;13.33;;;;;15.64;61.82;101392.94;5052859;28;45704;-71
2023/04/29 06:10:54;;;;;;;;;15.00;13.67;;;;;15.69;61.62;101412.25;5053943;28;45438;-70
2023/04/29 06:13:19;;;;;;;;;14.33;12.33;;;;;15.62;61.29;101396.50;5053903;28;45480;-70
2023/04/29 06:15:45;;;;;;;;;17.00;12.67;;;;;15.51;61.43;101371.94;5053590;28;45513;-72
2023/04/29 06:18:10;;;;;;;;;16.00;15.33;;;;;15.73;61.49;101418.44;5040407;28;45487;-70
2023/04/29 06:20:36;;;;;;;;;19.33;15.67;;;;;15.69;61.85;101417.53;5065459;28;45442;-73
2023/04/29 06:23:02;;;;;;;;;18.00;13.67;;;;;15.57;61.62;101385.97;5066467;27;45391;-71
2023/04/29 06:25:27;;;;;;;;;26.00;21.33;;;;;15.67;61.73;101414.03;5074495;27;46531;-71
2023/04/29 06:27:53;;;;;;;;;21.00;18.67;;;;;15.54;62.49;101430.88;5068432;28;45288;-70
2023/04/29 06:30:18;;;;;;;;;16.33;14.67;;;;;15.44;62.64;101415.97;5075423;27;45485;-70
2023/04/29 06:32:44;;;;;;;;;13.67;11.33;;;;;15.35;63.02;101413.41;5058079;28;45485;-70
2023/04/29 06:35:10;;;;;;;;;14.00;11.33;;;;;15.30;63.23;101402.88;5061689;27;45414;-70
2023/04/29 06:37:35;;;;;;;;;13.33;9.33;;;;;15.41;62.79;101414.22;5055441;28;45438;-69
2023/04/29 06:40:01;;;;;;;;;10.33;9.67;;;;;15.40;62.95;101416.88;5054539;28;45523;-70
2023/04/29 06:42:27;;;;;;;;;11.67;11.33;;;;;15.38;63.10;101410.75;5086252;27;45401;-70
2023/04/29 06:44:52;;;;;;;;;10.33;8.67;;;;;15.47;62.57;101426.50;5054360;28;46934;-70
2023/04/29 06:47:19;;;;;;;;;10.33;9.33;;;;;15.47;62.46;101414.19;5057150;27;45436;-71
2023/04/29 06:49:44;;;;;;;;;9.33;7.67;;;;;15.41;63.08;101413.38;5056770;27;45887;-70
2023/04/29 06:52:10;;;;;;;;;14.00;10.67;;;;;15.53;62.88;101429.13;5067240;27;45761;-69
2023/04/29 06:54:35;;;;;;;;;14.00;10.00;;;;;15.51;63.10;101415.03;5060514;27;47771;-69
2023/04/29 06:57:01;;;;;;;;;11.00;8.67;;;;;15.50;63.03;101426.50;5065045;27;45639;-72
2023/04/29 06:59:27;;;;;;;;;9.33;7.33;;;;;15.53;62.99;101429.13;5064027;27;45437;-70
2023/04/29 07:01:52;;;;;;;;;11.67;9.33;;;;;15.58;62.67;101440.50;5067064;27;45996;-69
2023/04/29 07:04:18;;;;;;;;;19.67;16.67;;;;;15.55;62.69;101443.19;5067103;27;45349;-70
2023/04/29 07:06:45;;;;;;;;;23.00;18.67;;;;;15.29;63.17;101437.22;5059119;28;45425;-70
2023/04/29 07:09:13;;;;;;;;;22.25;18.00;;;;;15.18;64.27;101448.69;5062890;27;45882;-69
2023/04/29 07:11:39;;;;;;;;;21.33;18.00;;;;;14.95;64.35;101440.91;5069584;27;45460;-70
2023/04/29 07:14:04;;;;;;;;;23.00;14.00;;;;;14.88;65.02;101446.19;5070794;27;47632;-70
2023/04/29 07:16:30;;;;;;;;;18.33;13.00;;;;;14.95;65.03;101451.47;5073928;27;45960;-70
2023/04/29 07:18:55;;;;;;;;;19.67;13.67;;;;;14.95;64.87;101447.91;5065399;28;45472;-70
2023/04/29 07:21:21;;;;;;;;;15.00;12.00;;;;;15.08;64.69;101454.03;5064839;27;45543;-70
2023/04/29 07:23:46;;;;;;;;;19.67;13.00;;;;;15.09;64.22;101454.03;5076081;27;46525;-70
2023/04/29 07:26:14;;;;;;;;;15.00;14.33;;;;;15.20;64.13;101462.75;5058076;27;45613;-69
2023/04/29 07:28:41;;;;;;;;;19.00;16.00;;;;;15.27;64.40;101460.97;5055375;27;45454;-70
2023/04/29 07:31:06;;;;;;;;;25.67;18.33;;;;;15.22;64.13;101450.44;5057115;27;45550;-70
2023/04/29 07:33:33;;;;;;;;;22.33;15.67;;;;;15.33;63.59;101457.41;5060161;27;46838;-71
2023/04/29 07:35:58;;;;;;;;;18.33;16.00;;;;;15.41;63.30;101468.81;5086826;27;45330;-70
2023/04/29 07:38:25;;;;;;;;;29.00;21.00;;;;;15.51;63.08;101474.91;5073393;27;45555;-69
2023/04/29 07:40:51;;;;;;;;;19.33;16.33;;;;;15.55;62.82;101466.94;5058194;27;45498;-70
2023/04/29 07:43:17;;;;;;;;;22.00;19.00;;;;;15.49;63.21;101461.69;5055902;28;45439;-69
2023/04/29 07:45:42;;;;;;;;;22.67;17.00;;;;;15.59;62.76;101471.31;5066216;27;45280;-70
2023/04/29 07:48:08;;;;;;;;;19.67;16.00;;;;;15.61;62.44;101472.19;5067413;27;45359;-70
2023/04/29 07:50:35;;;;;;;;;27.25;19.75;;;;;15.66;62.65;101473.03;5060950;27;45567;-70
2023/04/29 07:53:01;;;;;;;;;23.00;19.67;;;;;15.68;62.77;101478.28;5054189;27;45725;-70
2023/04/29 07:55:28;;;;;;;;;28.75;24.50;;;;;15.55;62.82;101474.00;5055740;27;45371;-70
2023/04/29 07:57:55;;;;;;;;;29.00;20.75;;;;;15.50;62.67;101481.06;5067498;27;45608;-71
2023/04/29 08:00:22;;;;;;;;;37.75;31.50;;;;;15.26;63.08;101481.19;5075381;27;45453;-69
2023/04/29 08:02:53;;;;;;;;;30.75;25.50;;;;;14.98;64.61;101480.47;5076864;27;45436;-70
2023/04/29 08:05:22;;;;;;;;;28.25;20.25;;;;;14.92;64.61;101479.59;5068299;27;45496;-71
2023/04/29 08:07:48;;;;;;;;;29.25;20.75;;;;;14.77;64.63;101443.63;5090065;27;45456;-70
2023/04/29 08:10:18;;;;;;;;;28.00;19.33;;;;;15.08;64.69;101485.69;5048818;28;45340;-71
2023/04/29 08:12:47;;;;;;;;;18.50;16.50;;;;;15.15;64.45;101485.66;5061477;27;46377;-71
2023/04/29 08:15:13;;;;;;;;;19.00;17.00;;;;;15.17;63.90;101483.03;5059456;27;45414;-71
2023/04/29 08:17:39;;;;;;;;;22.33;18.67;;;;;15.31;64.10;101489.09;5060217;28;45325;-69
2023/04/29 08:20:07;;;;;;;;;22.50;20.00;;;;;15.37;63.84;101480.25;5074448;28;45395;-69
2023/04/29 08:22:33;;;;;;;;;30.50;24.50;;;;;15.36;63.88;101484.66;5075514;28;46252;-68
2023/04/29 08:24:58;;;;;;;;;25.75;19.50;;;;;15.45;63.46;101487.25;5078945;27;45860;-68
2023/04/29 08:27:24;;;;;;;;;21.00;18.50;;;;;15.44;63.38;101476.69;5075396;28;45446;-68
2023/04/29 08:29:50;;;;;;;;;26.75;21.25;;;;;15.60;63.22;101486.25;5073788;28;45523;-69
2023/04/29 08:32:16;;;;;;;;;24.67;18.33;;;;;15.69;62.63;101486.22;5065092;27;45995;-70
2023/04/29 08:34:43;;;;;;;;;21.67;17.67;;;;;15.76;62.44;101494.13;5054961;27;45845;-69
2023/04/29 08:37:09;;;;;;;;;30.25;22.25;;;;;15.79;62.04;101488.81;5062006;27;45489;-68
2023/04/29 08:39:35;;;;;;;;;21.00;19.00;;;;;15.80;61.77;101480.91;5059445;27;45356;-69
2023/04/29 08:42:08;;;;;;;;;40.75;30.75;;;;;15.87;61.66;101477.31;5058631;27;46287;-69
2023/04/29 08:44:34;;;;;;;;;40.75;32.50;;;;;15.82;61.25;101497.56;5057688;28;45517;-68
2023/04/29 08:47:01;;;;;;;;;36.50;32.75;;;;;15.51;62.15;101504.81;5055108;27;45503;-70
2023/04/29 08:49:28;;;;;;;;;36.75;30.25;;;;;15.47;62.47;101495.13;5056535;27;45817;-68
2023/04/29 08:51:54;;;;;;;;;35.25;26.25;;;;;15.37;63.08;101483.75;5068131;27;45415;-68
2023/04/29 08:54:19;;;;;;;;;27.50;23.00;;;;;15.36;62.76;101470.59;5061043;27;45393;-67
2023/04/29 08:56:48;;;;;;;;;24.25;23.75;;;;;15.59;62.17;101487.16;5054781;27;45778;-68
2023/04/29 08:59:16;;;;;;;;;28.25;25.00;;;;;15.73;62.03;101504.69;5056912;27;45466;-68
2023/04/29 09:01:42;;;;;;;;;32.75;27.25;;;;;15.76;61.89;101487.06;5052552;27;46921;-68
2023/04/29 09:04:14;;;;;;;;;25.75;23.50;;;;;15.87;62.09;101500.19;5069668;27;45500;-69
2023/04/29 09:06:40;;;;;;;;;24.75;20.00;;;;;15.97;61.41;101509.81;5056839;27;45410;-69
2023/04/29 09:09:06;;;;;;;;;25.75;22.50;;;;;16.04;61.27;101507.97;5054423;27;45503;-69
2023/04/29 09:11:33;;;;;;;;;38.25;32.50;;;;;15.90;60.99;101505.47;5053445;27;47827;-68
2023/04/29 09:14:00;;;;;;;;;26.75;23.75;;;;;15.89;61.15;101512.50;5056622;28;45548;-68
2023/04/29 09:16:26;;;;;;;;;28.25;24.25;;;;;15.88;61.25;101494.91;5075539;27;45618;-69
2023/04/29 09:18:54;;;;;;;;;37.25;26.25;;;;;16.01;60.80;101503.59;5098874;27;45535;-69
2023/04/29 09:21:21;;;;;;;;;30.25;25.25;;;;;16.10;60.75;101514.09;5078221;27;46125;-68
2023/04/29 09:23:50;;;;;;;;;30.25;24.00;;;;;16.13;60.67;101510.53;5072217;28;45362;-69
2023/04/29 09:26:16;;;;;;;;;23.25;20.00;;;;;16.16;60.13;101509.63;5059114;27;45532;-68
2023/04/29 09:28:46;;;;;;;;;22.33;22.33;;;;;16.21;60.26;101511.38;5054270;27;45251;-68
2023/04/29 09:31:12;;;;;;;;;35.00;27.00;;;;;16.23;59.87;101516.63;5056438;27;46207;-68
2023/04/29 09:33:53;;;;;;;;;28.00;22.00;;;;;16.28;60.07;101518.34;5090014;27;45539;-68
2023/04/29 09:36:39;;;;;;;;;42.00;32.00;;;;;16.25;60.12;101515.75;5058208;27;45467;-68
2023/04/29 09:39:12;;;;;;;;;37.75;32.50;;;;;16.20;60.08;101516.66;5064066;27;45527;-68
2023/04/29 09:41:56;;;;;;;;;30.25;26.50;;;;;16.27;60.13;101519.22;5062959;28;45600;-68
2023/04/29 09:44:23;;;;;;;;;35.67;23.00;;;;;16.33;59.93;101516.53;5053639;27;45249;-69
2023/04/29 09:47:03;;;;;;;;;26.50;22.00;;;;;16.47;59.60;101519.06;5052490;28;45449;-68
2023/04/29 09:49:36;;;;;;;;;24.67;20.33;;;;;16.48;59.29;101512.00;5057533;27;45491;-69
2023/04/29 09:52:04;;;;;;;;;35.00;27.25;;;;;16.55;59.33;101511.03;5065542;27;45993;-68
2023/04/29 09:54:32;;;;;;;;;36.00;30.25;;;;;16.59;59.41;101522.47;5055279;28;45744;-68
2023/04/29 09:56:59;;;;;;;;;46.25;35.50;;;;;16.56;58.73;101528.63;5055519;27;45312;-69
2023/04/29 09:59:25;;;;;;;;;41.25;33.50;;;;;16.37;58.87;101501.50;5066899;28;45545;-69
2023/04/29 10:01:56;;;;;;;;;44.50;35.50;;;;;16.57;58.65;101529.53;5053800;28;45588;-68
2023/04/29 10:04:24;;;;;;;;;36.50;30.50;;;;;16.54;58.46;101518.09;5056853;27;45299;-68
2023/04/29 10:06:51;;;;;;;;;28.00;24.67;;;;;16.62;58.38;101525.94;5056790;27;46197;-68
2023/04/29 10:09:18;;;;;;;;;32.00;26.00;;;;;16.68;58.20;101519.69;5089813;27;45425;-68
2023/04/29 10:11:49;;;;;;;;;24.00;21.67;;;;;16.76;58.02;101523.16;5055501;28;45481;-68
2023/04/29 10:14:16;;;;;;;;;21.67;20.33;;;;;16.82;57.59;101517.81;5052410;28;45487;-68
2023/04/29 10:16:47;;;;;;;;;26.67;24.33;;;;;16.89;57.31;101518.63;5055720;27;45563;-68
2023/04/29 10:19:19;;;;;;;;;29.33;25.33;;;;;16.92;57.44;101521.25;5063688;27;45384;-69
2023/04/29 10:21:48;;;;;;;;;26.67;23.00;;;;;16.98;57.18;101518.53;5053816;27;46584;-68
2023/04/29 10:24:16;;;;;;;;;36.50;29.00;;;;;16.95;56.66;101521.22;5054688;27;45496;-68
2023/04/29 10:26:43;;;;;;;;;29.25;26.25;;;;;16.87;57.68;101517.75;5086409;27;45554;-68
2023/04/29 10:29:12;;;;;;;;;37.33;25.67;;;;;16.98;57.24;101522.94;5058444;27;45657;-69
2023/04/29 10:31:40;;;;;;;;;29.67;25.00;;;;;17.05;56.96;101521.97;5051298;27;46821;-67
2023/04/29 10:34:05;;;;;;;;;32.00;25.33;;;;;17.10;56.74;101517.50;5053473;28;45358;-67
2023/04/29 10:36:33;;;;;;;;;35.33;29.00;;;;;17.17;56.29;101530.63;5058800;27;45424;-68
2023/04/29 10:39:02;;;;;;;;;40.00;33.25;;;;;17.20;56.07;101528.84;5056698;27;45366;-67
2023/04/29 10:41:43;;;;;;;;;42.50;34.25;;;;;17.13;56.18;101534.22;5062487;28;47610;-68
2023/04/29 10:44:09;;;;;;;;;44.00;32.25;;;;;16.97;56.04;101518.56;5053913;27;45380;-69
2023/04/29 10:46:36;;;;;;;;;35.00;28.33;;;;;17.07;56.36;101522.84;5060567;28;45285;-67
2023/04/29 10:49:05;;;;;;;;;43.50;33.50;;;;;17.21;55.63;101530.59;5057809;27;45484;-68
2023/04/29 10:51:40;;;;;;;;;47.00;35.25;;;;;17.20;54.83;101534.13;5058007;27;46302;-68
2023/04/29 10:54:13;;;;;;;;;42.25;34.25;;;;;17.13;54.28;101526.28;5056852;28;45370;-67
2023/04/29 10:56:41;;;;;;;;;41.00;32.00;;;;;17.04;55.27;101530.81;5073248;27;45341;-69
2023/04/29 10:59:12;;;;;;;;;47.50;34.50;;;;;17.00;54.60;101531.75;5075793;27;45417;-68
2023/04/29 11:01:52;;;;;;;;;35.67;30.00;;;;;16.81;54.55;101516.06;5071443;27;47128;-69
2023/04/29 11:04:20;;;;;;;;;44.50;35.75;;;;;16.87;55.02;101517.75;5073088;27;45464;-68
2023/04/29 11:06:54;;;;;;;;;36.75;31.00;;;;;16.95;56.07;101526.50;5073402;27;45495;-68
2023/04/29 11:09:22;;;;;;;;;39.00;30.00;;;;;17.06;56.48;101537.84;5076416;27;45344;-68
2023/04/29 11:11:54;;;;;;;;;29.33;27.67;;;;;17.24;56.38;101535.84;5076863;28;45576;-69
2023/04/29 11:14:35;;;;;;;;;25.33;24.00;;;;;17.44;55.17;101540.88;5092691;27;45354;-68
2023/04/29 11:17:22;;;;;;;;;28.33;22.33;;;;;17.51;54.80;101516.94;5068835;27;45594;-68